Metar z połowy godziny Komunikat METAR ze strony awiacja.imgw.pl Metar G30 EPMM METAR EPMM 230800Z 09010KT 8000 BKN025 M05/M07 Q1009 RMK M055 089 7/7=